Pau d'Arco, Brazil
Current Conditions -  °F | °C
As of 6:30 PM on Tuesday 25 Nov 2014 (Local Time) from SBCJ Reporting Station
Few Clouds Few Clouds  
Wind Chill: 75°   Ceiling: Unl
Heat Index: 75°   Visibility: 6mi
Dew Point: 70°   Wind: 0mph
Humidity: 83%   Direction: NA
Pressure: 29.88"   Gusts: NA
Location:  7.54°S, 49.37°W
Report Text: SBCJ 252130Z 00000KT 9999 FEW027 24/21 Q1012
Loading
Personal Weather Stations






























Interactive Weather Map New forecast layout! Learn more

10-Day Weather Forecast

Advertisements
Track Severe Weather on mobile